createdAt,value
2018-01-19T00:00:55.406Z,3.90
2018-01-19T00:03:23.770Z,3.90
2018-01-19T00:05:51.507Z,3.90
2018-01-19T00:08:19.597Z,3.90
2018-01-19T00:10:48.431Z,4.00
2018-01-19T00:13:20.496Z,4.00
2018-01-19T00:15:49.669Z,3.90
2018-01-19T00:18:18.781Z,3.80
2018-01-19T00:20:49.776Z,3.70
2018-01-19T00:23:18.569Z,3.70
2018-01-19T00:25:47.190Z,3.60
2018-01-19T00:28:15.149Z,3.50
2018-01-19T00:30:42.936Z,3.50
2018-01-19T00:33:11.615Z,3.40
2018-01-19T00:35:51.280Z,3.30
2018-01-19T00:38:20.515Z,3.30
2018-01-19T00:40:48.587Z,3.30
2018-01-19T00:43:17.107Z,3.30
2018-01-19T00:45:45.358Z,3.30
2018-01-19T00:48:13.132Z,3.30
2018-01-19T00:50:41.645Z,3.20
2018-01-19T00:53:10.089Z,3.20
2018-01-19T00:55:37.810Z,3.10
2018-01-19T00:58:05.561Z,3.10
2018-01-19T01:00:33.289Z,3.10
2018-01-19T01:03:01.090Z,3.10
2018-01-19T01:05:28.841Z,3.10
2018-01-19T01:07:57.379Z,3.00
2018-01-19T01:10:25.098Z,3.00
2018-01-19T01:12:52.818Z,3.00
2018-01-19T01:15:20.697Z,3.00
2018-01-19T01:17:49.346Z,3.00
2018-01-19T01:20:17.053Z,3.00
2018-01-19T01:22:45.556Z,3.00
2018-01-19T01:25:13.272Z,3.00
2018-01-19T01:27:42.120Z,3.00
2018-01-19T01:30:09.865Z,3.00
2018-01-19T01:32:37.797Z,3.00
2018-01-19T01:35:05.687Z,3.10
2018-01-19T01:37:34.290Z,3.10
2018-01-19T01:40:02.208Z,3.10
2018-01-19T01:42:30.922Z,3.20
2018-01-19T01:44:58.640Z,3.20
2018-01-19T01:47:26.541Z,3.40
2018-01-19T01:49:54.250Z,3.70
2018-01-19T01:52:22.191Z,3.80
2018-01-19T01:54:49.968Z,3.90
2018-01-19T01:57:17.725Z,3.90
2018-01-19T01:59:45.455Z,4.00
2018-01-19T02:02:13.248Z,4.00
2018-01-19T02:04:41.026Z,4.00
2018-01-19T02:07:08.769Z,4.00
2018-01-19T02:09:37.250Z,4.10
2018-01-19T02:12:05.082Z,4.10
2018-01-19T02:14:32.798Z,4.10
2018-01-19T02:17:00.538Z,4.10
2018-01-19T02:19:28.368Z,4.10
2018-01-19T02:21:56.870Z,4.10
2018-01-19T02:24:25.403Z,4.00
2018-01-19T02:26:53.164Z,4.00
2018-01-19T02:29:20.946Z,4.00
2018-01-19T02:31:48.683Z,3.90
2018-01-19T02:34:16.433Z,3.90
2018-01-19T02:36:44.139Z,3.80
2018-01-19T02:39:11.882Z,3.80
2018-01-19T02:41:39.677Z,3.90
2018-01-19T02:44:07.373Z,3.80
2018-01-19T02:46:35.185Z,3.80
2018-01-19T02:49:02.970Z,3.80
2018-01-19T02:51:30.734Z,3.80
2018-01-19T02:53:59.207Z,3.80
2018-01-19T02:56:27.736Z,3.80
2018-01-19T02:58:55.450Z,3.80
2018-01-19T03:01:23.199Z,3.70
2018-01-19T03:03:50.929Z,3.80
2018-01-19T03:06:18.688Z,3.80
2018-01-19T03:08:46.414Z,3.80
2018-01-19T03:11:15.055Z,3.60
2018-01-19T03:13:42.816Z,3.60
2018-01-19T03:16:10.525Z,3.50
2018-01-19T03:18:38.303Z,3.50
2018-01-19T03:21:05.987Z,3.30
2018-01-19T03:23:33.747Z,3.10
2018-01-19T03:26:01.450Z,3.20
2018-01-19T03:28:29.245Z,3.10
2018-01-19T03:30:57.711Z,3.20
2018-01-19T03:33:25.481Z,3.20
2018-01-19T03:35:53.975Z,3.10
2018-01-19T03:38:21.738Z,3.10
2018-01-19T03:40:49.454Z,3.20
2018-01-19T03:43:17.198Z,3.20
2018-01-19T03:45:44.886Z,3.20
2018-01-19T03:48:12.646Z,3.20
2018-01-19T03:50:40.363Z,3.20
2018-01-19T03:53:08.141Z,3.10
2018-01-19T03:55:35.894Z,3.00
2018-01-19T03:58:03.646Z,2.90
2018-01-19T04:00:31.422Z,2.80
2018-01-19T04:02:59.134Z,2.70
2018-01-19T04:05:26.898Z,2.80
2018-01-19T04:07:54.613Z,2.80
2018-01-19T04:10:22.388Z,2.70
2018-01-19T04:12:50.118Z,2.60
2018-01-19T04:15:17.871Z,2.60
2018-01-19T04:17:45.623Z,2.80
2018-01-19T04:20:14.120Z,2.80
2018-01-19T04:22:42.643Z,2.80
2018-01-19T04:25:10.349Z,2.80
2018-01-19T04:27:38.088Z,2.80
2018-01-19T04:30:05.852Z,2.80
2018-01-19T04:32:33.584Z,2.70
2018-01-19T04:35:01.338Z,2.70
2018-01-19T04:37:29.075Z,2.70
2018-01-19T04:39:57.675Z,2.70
2018-01-19T04:42:25.402Z,2.60
2018-01-19T04:44:53.926Z,2.60
2018-01-19T04:47:21.614Z,2.50
2018-01-19T04:49:50.118Z,2.40
2018-01-19T04:52:17.878Z,2.40
2018-01-19T04:54:45.630Z,2.30
2018-01-19T04:57:13.418Z,2.30
2018-01-19T04:59:41.938Z,2.30
2018-01-19T05:02:09.689Z,2.30
2018-01-19T05:04:37.396Z,2.30
2018-01-19T05:07:05.202Z,2.20
2018-01-19T05:09:33.685Z,2.20
2018-01-19T05:12:01.440Z,2.20
2018-01-19T05:14:29.144Z,2.30
2018-01-19T05:16:56.881Z,2.30
2018-01-19T05:19:24.613Z,2.30
2018-01-19T05:21:53.093Z,2.30
2018-01-19T05:24:20.912Z,2.30
2018-01-19T05:26:48.652Z,2.20
2018-01-19T05:29:16.398Z,2.30
2018-01-19T05:31:44.873Z,2.40
2018-01-19T05:34:13.437Z,2.40
2018-01-19T05:36:41.179Z,2.40
2018-01-19T05:39:08.891Z,2.50
2018-01-19T05:41:37.369Z,2.70
2018-01-19T05:44:06.502Z,2.70
2018-01-19T05:46:34.417Z,2.70
2018-01-19T05:49:02.175Z,2.80
2018-01-19T05:51:30.706Z,3.20
2018-01-19T05:53:58.553Z,3.20
2018-01-19T05:56:26.330Z,3.20
2018-01-19T05:58:54.078Z,3.20
2018-01-19T06:01:21.836Z,3.10
2018-01-19T06:03:49.599Z,3.20
2018-01-19T06:06:17.306Z,3.10
2018-01-19T06:08:45.048Z,3.10
2018-01-19T06:11:12.765Z,3.10
2018-01-19T06:13:41.296Z,3.20
2018-01-19T06:16:09.132Z,3.20
2018-01-19T06:18:36.920Z,3.30
2018-01-19T06:21:04.701Z,3.30
2018-01-19T06:23:32.458Z,3.30
2018-01-19T06:26:00.172Z,3.30
2018-01-19T06:28:28.794Z,3.20
2018-01-19T06:30:56.498Z,3.20
2018-01-19T06:33:24.246Z,3.10
2018-01-19T06:35:52.052Z,3.10
2018-01-19T06:38:20.588Z,2.90
2018-01-19T06:40:48.362Z,2.90
2018-01-19T06:43:16.112Z,2.90
2018-01-19T06:45:43.829Z,2.90
2018-01-19T06:48:11.579Z,2.80
2018-01-19T06:50:40.073Z,2.80
2018-01-19T06:53:07.820Z,2.80
2018-01-19T06:55:35.611Z,2.70
2018-01-19T06:58:03.373Z,2.70
2018-01-19T07:00:34.869Z,2.80
2018-01-19T07:03:02.714Z,2.70
2018-01-19T07:05:30.689Z,2.60
2018-01-19T07:07:58.466Z,2.50
2018-01-19T07:10:26.618Z,2.50
2018-01-19T07:12:54.510Z,2.40
2018-01-19T07:15:22.457Z,2.40
2018-01-19T07:17:50.258Z,2.40
2018-01-19T07:20:18.782Z,2.40
2018-01-19T07:22:46.527Z,2.40
2018-01-19T07:25:14.294Z,2.40
2018-01-19T07:27:42.005Z,2.50
2018-01-19T07:30:09.781Z,2.50
2018-01-19T07:32:37.648Z,2.50
2018-01-19T07:35:06.202Z,2.50
2018-01-19T07:37:33.920Z,2.50
2018-01-19T07:40:01.892Z,2.60
2018-01-19T07:42:29.732Z,2.70
2018-01-19T07:44:58.317Z,2.70
2018-01-19T07:47:26.107Z,2.70
2018-01-19T07:49:53.939Z,2.80
2018-01-19T07:52:21.697Z,2.80
2018-01-19T07:54:49.536Z,2.80
2018-01-19T07:57:20.552Z,3.10
2018-01-19T07:59:48.500Z,3.00
2018-01-19T08:02:16.407Z,3.10
2018-01-19T08:04:44.301Z,3.00
2018-01-19T08:07:12.395Z,3.00
2018-01-19T08:09:40.143Z,3.00
2018-01-19T08:12:08.656Z,3.00
2018-01-19T08:14:36.436Z,3.00
2018-01-19T08:17:04.190Z,3.00
2018-01-19T08:19:31.937Z,3.00
2018-01-19T08:21:59.738Z,3.00
2018-01-19T08:24:27.522Z,3.00
2018-01-19T08:26:55.243Z,3.10
2018-01-19T08:29:23.013Z,3.20
2018-01-19T08:31:50.706Z,3.30
2018-01-19T08:34:18.533Z,3.40
2018-01-19T08:36:46.314Z,3.50
2018-01-19T08:39:14.936Z,3.40
2018-01-19T08:41:47.171Z,3.40
2018-01-19T08:44:14.975Z,3.60
2018-01-19T08:46:43.622Z,3.90
2018-01-19T08:49:11.372Z,3.90
2018-01-19T08:51:39.244Z,4.00
2018-01-19T08:54:06.956Z,4.00
2018-01-19T08:56:35.641Z,4.10
2018-01-19T08:59:04.124Z,4.20
2018-01-19T09:01:32.680Z,4.20
2018-01-19T09:04:00.447Z,4.20
2018-01-19T09:06:28.375Z,4.20
2018-01-19T09:08:56.312Z,4.20
2018-01-19T09:11:24.060Z,4.20
2018-01-19T09:13:56.412Z,4.20
2018-01-19T09:16:34.515Z,4.20
2018-01-19T09:19:05.765Z,4.30
2018-01-19T09:21:34.711Z,4.30
2018-01-19T09:24:04.474Z,4.20
2018-01-19T09:26:32.602Z,4.20
2018-01-19T09:29:00.381Z,4.20
2018-01-19T09:31:28.344Z,4.20
2018-01-19T09:33:56.122Z,4.20
2018-01-19T09:36:23.920Z,4.20
2018-01-19T09:38:52.625Z,4.50
2018-01-19T09:41:21.186Z,4.50
2018-01-19T09:43:48.988Z,4.50
2018-01-19T09:46:16.899Z,4.50
2018-01-19T09:48:44.680Z,4.40
2018-01-19T09:51:12.542Z,4.40
2018-01-19T09:53:40.276Z,4.30
2018-01-19T09:56:08.047Z,4.50
2018-01-19T09:58:35.753Z,4.50
2018-01-19T10:01:03.535Z,4.50
2018-01-19T10:03:31.323Z,4.60
2018-01-19T10:05:59.122Z,4.70
2018-01-19T10:08:27.603Z,4.70
2018-01-19T10:10:56.109Z,4.70
2018-01-19T10:13:23.838Z,4.60
2018-01-19T10:15:52.522Z,5.00
2018-01-19T10:18:20.268Z,5.00
2018-01-19T10:20:47.954Z,5.10
2018-01-19T10:23:16.579Z,5.10
2018-01-19T10:25:44.325Z,5.10
2018-01-19T10:28:12.826Z,5.00
2018-01-19T10:30:40.546Z,5.00
2018-01-19T10:33:08.460Z,5.10
2018-01-19T10:35:36.182Z,5.10
2018-01-19T10:38:04.648Z,5.20
2018-01-19T10:40:32.446Z,5.20
2018-01-19T10:43:00.341Z,5.40
2018-01-19T10:45:28.203Z,5.50
2018-01-19T10:47:55.945Z,5.50
2018-01-19T10:50:23.708Z,5.50
2018-01-19T10:52:51.529Z,5.70
2018-01-19T10:55:19.326Z,5.80
2018-01-19T10:57:47.897Z,5.90
2018-01-19T11:00:16.389Z,5.80
2018-01-19T11:02:44.889Z,5.90
2018-01-19T11:05:12.686Z,5.90
2018-01-19T11:07:40.522Z,5.90
2018-01-19T11:10:09.124Z,6.10
2018-01-19T11:12:36.808Z,5.90
2018-01-19T11:15:04.539Z,6.10
2018-01-19T11:17:32.263Z,6.10
2018-01-19T11:20:00.894Z,6.20
2018-01-19T11:22:28.606Z,6.10
2018-01-19T11:24:56.316Z,6.20
2018-01-19T11:27:24.042Z,6.30
2018-01-19T11:29:51.801Z,6.30
2018-01-19T11:32:19.490Z,6.30
2018-01-19T11:34:47.197Z,6.40
2018-01-19T11:37:14.937Z,6.40
2018-01-19T11:39:42.677Z,6.40
2018-01-19T11:42:10.407Z,6.50
2018-01-19T11:44:38.889Z,6.70
2018-01-19T11:47:06.629Z,6.60
2018-01-19T11:49:34.310Z,6.80
2018-01-19T11:52:02.775Z,6.90
2018-01-19T11:54:31.258Z,6.80
2018-01-19T11:56:59.002Z,6.80
2018-01-19T11:59:26.759Z,6.90
2018-01-19T12:01:54.535Z,7.00
2018-01-19T12:04:22.281Z,6.90
2018-01-19T12:06:49.965Z,6.80
2018-01-19T12:09:17.670Z,6.90
2018-01-19T12:11:45.351Z,6.80
2018-01-19T12:14:13.086Z,6.70
2018-01-19T12:16:40.790Z,6.80
2018-01-19T12:19:08.564Z,6.90
2018-01-19T12:21:36.275Z,6.90
2018-01-19T12:24:04.045Z,6.80
2018-01-19T12:26:31.738Z,6.90
2018-01-19T12:28:59.448Z,6.90
2018-01-19T12:31:27.158Z,7.00
2018-01-19T12:33:54.884Z,7.10
2018-01-19T12:36:22.776Z,7.00
2018-01-19T12:38:50.485Z,7.10
2018-01-19T12:41:18.974Z,7.20
2018-01-19T12:43:47.536Z,7.10
2018-01-19T12:46:16.750Z,7.10
2018-01-19T12:48:44.473Z,7.10
2018-01-19T12:51:12.191Z,7.10
2018-01-19T12:53:39.913Z,7.10
2018-01-19T12:56:07.620Z,6.90
2018-01-19T12:58:35.332Z,6.80
2018-01-19T13:01:03.198Z,6.60
2018-01-19T13:03:30.991Z,6.50
2018-01-19T13:05:59.455Z,6.40
2018-01-19T13:08:28.101Z,6.30
2018-01-19T13:10:56.617Z,6.20
2018-01-19T13:13:24.334Z,6.20
2018-01-19T13:15:52.031Z,6.10
2018-01-19T13:18:19.957Z,6.00
2018-01-19T13:20:47.714Z,6.10
2018-01-19T13:23:15.541Z,6.10
2018-01-19T13:25:43.313Z,6.10
2018-01-19T13:28:11.160Z,6.20
2018-01-19T13:30:38.896Z,6.30
2018-01-19T13:33:06.622Z,6.40
2018-01-19T13:35:34.321Z,6.40
2018-01-19T13:38:02.226Z,6.50
2018-01-19T13:40:30.077Z,6.60
2018-01-19T13:42:57.815Z,6.60
2018-01-19T13:45:25.682Z,6.70
2018-01-19T13:47:53.366Z,6.70
2018-01-19T13:50:21.097Z,6.90
2018-01-19T13:52:48.784Z,6.90
2018-01-19T13:55:16.556Z,7.10
2018-01-19T14:00:14.137Z,7.20
2018-01-19T14:02:42.070Z,7.30
2018-01-19T14:05:09.798Z,7.30
2018-01-19T14:07:37.533Z,7.70
2018-01-19T14:10:05.990Z,8.80
2018-01-19T14:12:33.792Z,8.70
2018-01-19T14:15:02.312Z,9.30
2018-01-19T14:17:30.032Z,9.30
2018-01-19T14:19:58.489Z,9.60
2018-01-19T14:22:26.221Z,9.60
2018-01-19T14:24:53.957Z,9.80
2018-01-19T14:27:21.711Z,9.70
2018-01-19T14:29:50.189Z,10.00
2018-01-19T14:32:18.703Z,9.90
2018-01-19T14:34:46.499Z,10.00
2018-01-19T14:39:48.099Z,10.00
2018-01-19T14:42:16.609Z,10.10
2018-01-19T14:44:44.362Z,10.10
2018-01-19T14:47:12.112Z,10.30
2018-01-19T14:49:39.842Z,10.40
2018-01-19T14:52:07.620Z,10.60
2018-01-19T14:54:36.137Z,10.30
2018-01-19T14:57:03.911Z,10.30
2018-01-19T14:59:31.659Z,10.10
2018-01-19T15:01:59.462Z,10.10
2018-01-19T15:04:27.252Z,9.70
2018-01-19T15:06:55.828Z,9.50
2018-01-19T15:09:23.591Z,9.50
2018-01-19T15:11:52.113Z,8.20
2018-01-19T15:14:20.042Z,8.20
2018-01-19T15:16:48.545Z,8.10
2018-01-19T15:19:17.058Z,8.60
2018-01-19T15:21:44.791Z,8.60
2018-01-19T15:24:12.596Z,8.50
2018-01-19T15:26:40.368Z,8.40
2018-01-19T15:29:08.179Z,8.60
2018-01-19T15:31:36.830Z,8.20
2018-01-19T15:34:05.400Z,8.40
2018-01-19T15:36:33.102Z,8.40
2018-01-19T15:41:36.461Z,8.00
2018-01-19T15:44:04.159Z,8.00
2018-01-19T15:46:31.926Z,7.60
2018-01-19T15:48:59.690Z,7.30
2018-01-19T15:51:28.245Z,7.20
2018-01-19T15:53:55.969Z,7.20
2018-01-19T15:56:23.863Z,7.20
2018-01-19T15:58:51.596Z,6.90
2018-01-19T16:01:20.093Z,6.40
2018-01-19T16:03:47.861Z,6.30
2018-01-19T16:06:15.858Z,6.00
2018-01-19T16:08:43.585Z,5.80
2018-01-19T16:11:11.404Z,5.80
2018-01-19T16:13:39.914Z,5.60
2018-01-19T16:16:07.646Z,5.60
2018-01-19T16:18:36.100Z,5.50
2018-01-19T16:21:03.897Z,5.40
2018-01-19T16:23:32.372Z,5.40
2018-01-19T16:26:00.077Z,5.30
2018-01-19T16:28:28.557Z,5.30
2018-01-19T16:30:56.315Z,5.30
2018-01-19T16:33:24.043Z,5.30
2018-01-19T16:35:52.608Z,5.30
2018-01-19T16:38:20.350Z,5.30
2018-01-19T16:40:48.100Z,5.20
2018-01-19T16:43:15.876Z,5.20
2018-01-19T16:45:43.601Z,5.20
2018-01-19T16:48:11.287Z,5.30
2018-01-19T16:50:39.131Z,5.20
2018-01-19T16:53:06.892Z,5.20
2018-01-19T16:55:34.614Z,5.20
2018-01-19T16:58:02.345Z,5.20
2018-01-19T17:00:30.069Z,5.20
2018-01-19T17:02:58.550Z,5.10
2018-01-19T17:05:27.026Z,5.20
2018-01-19T17:07:55.547Z,5.20
2018-01-19T17:10:23.271Z,5.20
2018-01-19T17:12:51.002Z,5.30
2018-01-19T17:15:18.732Z,5.30
2018-01-19T17:17:46.485Z,5.30
2018-01-19T17:20:14.235Z,5.30
2018-01-19T17:22:41.993Z,5.40
2018-01-19T17:25:09.921Z,5.40
2018-01-19T17:27:37.672Z,5.40
2018-01-19T17:30:05.405Z,5.40
2018-01-19T17:32:33.173Z,5.30
2018-01-19T17:35:00.914Z,5.30
2018-01-19T17:37:28.704Z,5.20
2018-01-19T17:39:56.393Z,5.20
2018-01-19T17:42:24.898Z,4.90
2018-01-19T17:44:52.693Z,4.90
2018-01-19T17:47:20.413Z,4.80
2018-01-19T17:49:48.151Z,4.70
2018-01-19T17:52:15.827Z,4.60
2018-01-19T17:54:43.514Z,4.60
2018-01-19T17:57:12.014Z,4.40
2018-01-19T17:59:39.723Z,4.40
2018-01-19T18:02:07.500Z,4.50
2018-01-19T18:04:35.265Z,4.50
2018-01-19T18:07:03.003Z,4.60
2018-01-19T18:09:30.682Z,4.70
2018-01-19T18:11:58.407Z,4.70
2018-01-19T18:14:26.110Z,4.70
2018-01-19T18:16:54.662Z,4.60
2018-01-19T18:19:22.415Z,4.60
2018-01-19T18:21:50.153Z,4.60
2018-01-19T18:24:17.844Z,4.70
2018-01-19T18:26:45.583Z,4.70
2018-01-19T18:29:13.745Z,4.70
2018-01-19T18:31:41.559Z,4.70
2018-01-19T18:34:09.257Z,4.60
2018-01-19T18:36:37.938Z,4.50
2018-01-19T18:39:05.649Z,4.50
2018-01-19T18:41:33.438Z,4.40
2018-01-19T18:44:01.343Z,4.50
2018-01-19T18:46:29.188Z,4.50
2018-01-19T18:48:56.942Z,4.50
2018-01-19T18:51:24.786Z,4.60
2018-01-19T18:53:52.489Z,4.70
2018-01-19T18:56:20.950Z,4.70
2018-01-19T18:58:48.667Z,4.70
2018-01-19T19:01:16.337Z,4.70
2018-01-19T19:03:44.049Z,4.60
2018-01-19T19:06:13.288Z,4.60
2018-01-19T19:08:41.084Z,4.60
2018-01-19T19:11:08.813Z,4.50
2018-01-19T19:13:36.808Z,4.40
2018-01-19T19:16:04.652Z,4.40
2018-01-19T19:18:32.537Z,4.50
2018-01-19T19:21:00.262Z,4.60
2018-01-19T19:23:28.072Z,4.70
2018-01-19T19:25:55.755Z,4.70
2018-01-19T19:28:23.477Z,4.70
2018-01-19T19:30:51.185Z,4.60
2018-01-19T19:33:19.117Z,4.60
2018-01-19T19:35:46.837Z,4.70
2018-01-19T19:38:15.338Z,4.70
2018-01-19T19:40:43.021Z,4.70
2018-01-19T19:43:10.733Z,4.70
2018-01-19T19:45:38.445Z,4.70
2018-01-19T19:48:06.127Z,4.70
2018-01-19T19:50:33.838Z,4.70
2018-01-19T19:53:01.593Z,4.80
2018-01-19T19:55:29.261Z,4.80
2018-01-19T19:57:56.993Z,4.80
2018-01-19T20:00:24.718Z,4.90
2018-01-19T20:02:52.463Z,4.80
2018-01-19T20:05:20.365Z,4.70
2018-01-19T20:07:48.150Z,4.60
2018-01-19T20:10:17.513Z,4.70
2018-01-19T20:12:45.246Z,4.80
2018-01-19T20:15:12.960Z,4.80
2018-01-19T20:17:40.699Z,4.80
2018-01-19T20:20:08.414Z,4.80
2018-01-19T20:22:36.873Z,4.90
2018-01-19T20:25:04.612Z,4.90
2018-01-19T20:27:32.325Z,4.90
2018-01-19T20:30:00.079Z,4.90
2018-01-19T20:32:28.661Z,5.00
2018-01-19T20:34:57.169Z,4.90
2018-01-19T20:37:24.924Z,4.90
2018-01-19T20:39:52.638Z,4.90
2018-01-19T20:42:20.513Z,4.90
2018-01-19T20:44:49.739Z,4.80
2018-01-19T20:47:18.196Z,4.70
2018-01-19T20:49:46.034Z,4.70
2018-01-19T20:52:13.852Z,4.60
2018-01-19T20:54:41.685Z,4.60
2018-01-19T20:57:10.175Z,4.60
2018-01-19T20:59:37.893Z,4.60
2018-01-19T21:02:05.638Z,4.60
2018-01-19T21:04:33.315Z,4.70
2018-01-19T21:07:01.031Z,4.70
2018-01-19T21:09:29.157Z,4.60
2018-01-19T21:11:57.025Z,4.60
2018-01-19T21:14:24.889Z,4.60
2018-01-19T21:16:52.601Z,4.50
2018-01-19T21:21:54.958Z,4.20
2018-01-19T21:24:22.691Z,4.10
2018-01-19T21:26:50.384Z,4.00
2018-01-19T21:29:18.075Z,4.00
2018-01-19T21:31:46.570Z,4.00
2018-01-19T21:34:14.293Z,4.00
2018-01-19T21:36:42.749Z,3.90
2018-01-19T21:39:10.641Z,3.90
2018-01-19T21:41:38.354Z,4.00
2018-01-19T21:44:06.037Z,4.00
2018-01-19T21:46:33.754Z,4.00
2018-01-19T21:49:02.190Z,4.00
2018-01-19T21:51:29.943Z,4.00
2018-01-19T21:53:57.623Z,4.10
2018-01-19T21:56:25.367Z,4.20
2018-01-19T21:58:53.073Z,4.30
2018-01-19T22:01:21.710Z,4.50
2018-01-19T22:03:49.414Z,4.40
2018-01-19T22:06:17.988Z,4.50
2018-01-19T22:08:46.072Z,4.50
2018-01-19T22:11:14.314Z,4.50
2018-01-19T22:13:42.402Z,4.40
2018-01-19T22:16:11.703Z,4.50
2018-01-19T22:18:39.567Z,4.50
2018-01-19T22:21:07.340Z,4.40
2018-01-19T22:23:35.966Z,4.40
2018-01-19T22:26:03.850Z,4.40
2018-01-19T22:28:31.559Z,4.30
2018-01-19T22:31:00.051Z,4.30
2018-01-19T22:33:28.543Z,4.30
2018-01-19T22:35:56.246Z,4.20
2018-01-19T22:38:23.973Z,4.30
2018-01-19T22:40:51.862Z,4.20
2018-01-19T22:43:19.727Z,4.10
2018-01-19T22:45:47.468Z,4.10
2018-01-19T22:48:15.234Z,4.10
2018-01-19T22:50:43.121Z,4.20
2018-01-19T22:53:10.842Z,4.20
2018-01-19T22:55:39.401Z,4.20
2018-01-19T22:58:07.707Z,4.20
2018-01-19T23:00:35.508Z,4.30
2018-01-19T23:03:03.213Z,4.30
2018-01-19T23:05:30.944Z,4.30
2018-01-19T23:07:58.619Z,4.30
2018-01-19T23:10:26.353Z,4.40
2018-01-19T23:12:54.257Z,4.40
2018-01-19T23:15:22.087Z,4.30
2018-01-19T23:17:49.985Z,4.20
2018-01-19T23:20:17.856Z,4.10
2018-01-19T23:22:47.156Z,4.10
2018-01-19T23:25:15.671Z,4.00
2018-01-19T23:27:43.418Z,4.00
2018-01-19T23:30:11.988Z,4.10
2018-01-19T23:32:40.114Z,4.10
2018-01-19T23:35:08.002Z,4.10
2018-01-19T23:37:36.279Z,4.10
2018-01-19T23:40:04.873Z,4.10
2018-01-19T23:42:32.763Z,4.30
2018-01-19T23:45:04.220Z,4.30
2018-01-19T23:47:32.955Z,4.30
2018-01-19T23:50:00.890Z,4.30
2018-01-19T23:52:28.686Z,4.30
2018-01-19T23:54:56.403Z,4.30
2018-01-19T23:57:24.490Z,4.40
2018-01-19T23:59:52.303Z,4.70
